createdAt,value
2019-02-27T00:02:32.640Z,7.83
2019-02-27T00:05:20.076Z,8.83
2019-02-27T00:08:07.641Z,9.60
2019-02-27T00:10:55.120Z,8.57
2019-02-27T00:13:42.344Z,8.03
2019-02-27T00:16:29.661Z,9.93
2019-02-27T00:19:17.287Z,8.40
2019-02-27T00:22:06.078Z,7.77
2019-02-27T00:24:53.570Z,9.63
2019-02-27T00:27:41.198Z,9.77
2019-02-27T00:30:29.247Z,9.60
2019-02-27T00:33:16.775Z,9.60
2019-02-27T00:36:04.291Z,10.07
2019-02-27T00:38:51.307Z,8.03
2019-02-27T00:41:38.934Z,8.30
2019-02-27T00:44:26.051Z,9.33
2019-02-27T00:47:13.884Z,9.07
2019-02-27T00:50:05.808Z,8.97
2019-02-27T00:52:51.071Z,11.43
2019-02-27T00:55:39.523Z,10.03
2019-02-27T00:58:27.660Z,8.13
2019-02-27T01:01:15.204Z,9.40
2019-02-27T01:04:02.486Z,7.93
2019-02-27T01:06:49.749Z,10.20
2019-02-27T01:09:39.579Z,9.20
2019-02-27T01:12:26.862Z,8.77
2019-02-27T01:15:15.088Z,8.33
2019-02-27T01:18:02.103Z,8.87
2019-02-27T01:20:49.834Z,7.23
2019-02-27T01:23:37.362Z,7.67
2019-02-27T01:26:24.990Z,9.27
2019-02-27T01:29:12.215Z,11.03
2019-02-27T01:31:59.737Z,10.73
2019-02-27T01:34:47.261Z,8.23
2019-02-27T01:37:34.892Z,8.80
2019-02-27T01:40:22.829Z,8.53
2019-02-27T01:43:10.150Z,9.00
2019-02-27T01:45:57.574Z,9.63
2019-02-27T01:48:45.415Z,10.67
2019-02-27T01:51:32.664Z,9.87
2019-02-27T01:54:20.256Z,10.13
2019-02-27T01:57:07.785Z,11.67
2019-02-27T01:59:55.208Z,9.60
2019-02-27T02:02:42.632Z,9.53
2019-02-27T02:05:29.854Z,10.47
2019-02-27T02:08:18.197Z,9.33
2019-02-27T02:11:05.829Z,9.83
2019-02-27T02:14:12.696Z,9.87
2019-02-27T02:17:07.472Z,11.03
2019-02-27T02:20:17.251Z,10.03
2019-02-27T02:23:29.351Z,8.23
2019-02-27T02:26:35.635Z,11.50
2019-02-27T02:29:41.171Z,8.93
2019-02-27T02:32:52.379Z,9.67
2019-02-27T02:35:51.195Z,10.03
2019-02-27T02:39:10.817Z,8.80
2019-02-27T02:42:04.160Z,8.83
2019-02-27T02:45:11.369Z,11.60
2019-02-27T02:48:19.994Z,10.83
2019-02-27T02:51:29.945Z,11.93
2019-02-27T02:54:23.965Z,9.47
2019-02-27T02:57:35.896Z,9.17
2019-02-27T03:00:48.025Z,10.67
2019-02-27T03:03:44.275Z,9.73
2019-02-27T03:06:44.173Z,9.97
2019-02-27T03:09:40.806Z,9.07
2019-02-27T03:12:36.945Z,9.50
2019-02-27T03:15:33.802Z,10.13
2019-02-27T03:18:30.478Z,9.03
2019-02-27T03:21:35.666Z,10.23
2019-02-27T03:24:48.792Z,8.93
2019-02-27T03:27:48.303Z,10.73
2019-02-27T03:30:47.708Z,10.53
2019-02-27T03:34:05.457Z,10.37
2019-02-27T03:37:14.183Z,10.43
2019-02-27T03:40:20.429Z,9.43
2019-02-27T03:43:30.890Z,10.87
2019-02-27T03:46:40.771Z,7.80
2019-02-27T03:49:45.263Z,9.70
2019-02-27T03:52:41.598Z,10.00
2019-02-27T03:55:37.940Z,11.20
2019-02-27T03:58:31.817Z,10.40
2019-02-27T04:01:34.797Z,16.63
2019-02-27T04:04:34.614Z,12.03
2019-02-27T04:07:47.993Z,11.97
2019-02-27T04:10:35.853Z,11.13
2019-02-27T04:13:26.396Z,17.20
2019-02-27T04:16:12.264Z,18.27
2019-02-27T04:19:02.726Z,15.07
2019-02-27T04:21:48.850Z,13.67
2019-02-27T04:24:36.187Z,10.67
2019-02-27T04:27:23.495Z,15.97
2019-02-27T04:30:14.809Z,14.37
2019-02-27T04:32:59.982Z,11.87
2019-02-27T04:35:47.609Z,13.90
2019-02-27T04:38:35.032Z,13.73
2019-02-27T04:41:22.463Z,12.77
2019-02-27T04:44:10.395Z,13.90
2019-02-27T04:46:57.712Z,9.57
2019-02-27T04:49:45.240Z,10.73
2019-02-27T04:52:32.870Z,11.23
2019-02-27T04:55:20.089Z,12.83
2019-02-27T04:58:09.009Z,15.77
2019-02-27T05:00:59.181Z,17.87
2019-02-27T05:03:45.230Z,15.37
2019-02-27T05:06:32.654Z,14.07
2019-02-27T05:09:20.282Z,14.30
2019-02-27T05:12:08.115Z,14.77
2019-02-27T05:14:55.743Z,11.33
2019-02-27T05:17:43.166Z,13.20
2019-02-27T05:20:31.006Z,11.57
2019-02-27T05:23:18.323Z,12.07
2019-02-27T05:26:06.156Z,14.83
2019-02-27T05:28:53.587Z,13.10
2019-02-27T05:31:41.211Z,11.57
2019-02-27T05:34:28.531Z,13.97
2019-02-27T05:37:15.981Z,12.70
2019-02-27T05:40:04.977Z,10.80
2019-02-27T05:42:52.341Z,13.97
2019-02-27T05:45:39.968Z,11.03
2019-02-27T05:48:27.617Z,13.33
2019-02-27T05:51:15.021Z,10.63
2019-02-27T05:54:02.641Z,10.70
2019-02-27T05:56:50.586Z,11.27
2019-02-27T05:59:37.908Z,11.40
2019-02-27T06:02:25.585Z,14.27
2019-02-27T06:05:13.390Z,11.40
2019-02-27T06:08:02.238Z,11.17
2019-02-27T06:10:49.552Z,10.47
2019-02-27T06:13:37.331Z,12.93
2019-02-27T06:16:25.019Z,13.47
2019-02-27T06:19:13.460Z,15.97
2019-02-27T06:22:00.804Z,15.67
2019-02-27T06:24:48.411Z,13.80
2019-02-27T06:27:37.162Z,13.43
2019-02-27T06:30:24.895Z,13.33
2019-02-27T06:33:12.433Z,12.33
2019-02-27T06:35:59.950Z,14.40
2019-02-27T06:38:47.786Z,14.10
2019-02-27T06:41:35.007Z,11.77
2019-02-27T06:44:22.736Z,9.07
2019-02-27T06:47:09.751Z,11.40
2019-02-27T06:49:57.275Z,11.63
2019-02-27T06:52:45.106Z,8.50
2019-02-27T06:55:33.834Z,10.33
2019-02-27T06:58:21.286Z,9.00
2019-02-27T07:01:09.669Z,11.87
2019-02-27T07:03:57.468Z,9.40
2019-02-27T07:06:44.582Z,8.57
2019-02-27T07:09:32.212Z,10.27
2019-02-27T07:12:21.908Z,11.10
2019-02-27T07:15:17.618Z,14.13
2019-02-27T07:18:06.075Z,10.50
2019-02-27T07:20:55.680Z,10.57
2019-02-27T07:23:43.948Z,14.10
2019-02-27T07:26:31.195Z,11.73
2019-02-27T07:29:21.753Z,12.80
2019-02-27T07:32:07.583Z,13.27
2019-02-27T07:34:55.107Z,11.03
2019-02-27T07:37:46.837Z,11.37
2019-02-27T07:40:32.024Z,11.80
2019-02-27T07:43:19.837Z,10.90
2019-02-27T07:46:07.362Z,10.70
2019-02-27T07:48:56.700Z,14.83
2019-02-27T07:51:43.850Z,11.47
2019-02-27T07:54:31.488Z,9.50
2019-02-27T07:57:19.001Z,9.60
2019-02-27T08:00:21.991Z,8.17
2019-02-27T08:03:12.951Z,9.13
2019-02-27T08:05:59.822Z,8.27
2019-02-27T08:08:48.768Z,9.07
2019-02-27T08:11:36.092Z,8.30
2019-02-27T08:14:23.513Z,8.13
2019-02-27T08:17:17.754Z,10.60
2019-02-27T08:19:59.894Z,8.73
2019-02-27T08:22:47.325Z,9.87
2019-02-27T08:25:34.747Z,8.97
2019-02-27T08:28:21.864Z,10.60
2019-02-27T08:31:09.290Z,11.73
2019-02-27T08:33:56.523Z,16.40
2019-02-27T08:36:44.142Z,12.97
2019-02-27T08:39:31.872Z,8.60
2019-02-27T08:42:19.193Z,9.90
2019-02-27T08:45:18.938Z,11.20
2019-02-27T08:47:58.115Z,10.23
2019-02-27T08:50:45.561Z,7.73
2019-02-27T08:53:34.447Z,7.20
2019-02-27T08:56:21.532Z,7.37
2019-02-27T08:59:08.758Z,10.30
2019-02-27T09:01:56.491Z,8.37
2019-02-27T09:04:45.411Z,8.97
2019-02-27T09:07:33.886Z,9.10
2019-02-27T09:10:28.103Z,8.87
2019-02-27T09:13:15.146Z,8.03
2019-02-27T09:16:03.027Z,10.40
2019-02-27T09:18:50.553Z,9.43
2019-02-27T09:21:38.082Z,10.33
2019-02-27T09:24:26.396Z,8.97
2019-02-27T09:27:13.744Z,9.93
2019-02-27T09:30:02.686Z,10.43
2019-02-27T09:32:49.618Z,10.07
2019-02-27T09:35:38.768Z,10.57
2019-02-27T09:38:26.104Z,8.40
2019-02-27T09:41:13.845Z,10.27
2019-02-27T09:44:01.547Z,7.93
2019-02-27T09:46:49.911Z,19.60
2019-02-27T09:49:40.819Z,16.13
2019-02-27T09:52:27.868Z,10.63
2019-02-27T09:55:20.173Z,9.30
2019-02-27T09:58:10.068Z,10.43
2019-02-27T10:01:00.280Z,10.33
2019-02-27T10:03:47.771Z,8.23
2019-02-27T10:06:34.887Z,9.93
2019-02-27T10:09:22.620Z,12.27
2019-02-27T10:12:10.039Z,10.80
2019-02-27T10:14:57.361Z,9.80
2019-02-27T10:17:45.401Z,9.40
2019-02-27T10:20:36.826Z,11.13
2019-02-27T10:23:21.989Z,9.30
2019-02-27T10:26:09.927Z,10.33
2019-02-27T10:28:57.369Z,9.30
2019-02-27T10:31:45.081Z,10.97
2019-02-27T10:34:32.402Z,9.40
2019-02-27T10:37:20.302Z,9.73
2019-02-27T10:40:25.075Z,10.37
2019-02-27T10:43:12.392Z,9.10
2019-02-27T10:45:59.814Z,10.53
2019-02-27T10:48:47.657Z,10.87
2019-02-27T10:51:34.872Z,9.13
2019-02-27T10:54:22.188Z,10.10
2019-02-27T10:57:09.716Z,10.10
2019-02-27T10:59:57.035Z,10.33
2019-02-27T11:02:47.451Z,9.77
2019-02-27T11:05:38.648Z,11.70
2019-02-27T11:08:28.894Z,9.20
2019-02-27T11:11:16.283Z,10.43
2019-02-27T11:14:03.374Z,10.47
2019-02-27T11:16:51.106Z,9.90
2019-02-27T11:19:38.221Z,10.43
2019-02-27T11:22:25.755Z,11.77
2019-02-27T11:25:15.994Z,8.73
2019-02-27T11:28:03.460Z,9.87
2019-02-27T11:30:51.133Z,8.40
2019-02-27T11:33:39.131Z,9.37
2019-02-27T11:36:26.249Z,9.57
2019-02-27T11:39:13.882Z,12.37
2019-02-27T11:42:01.089Z,10.10
2019-02-27T11:44:49.622Z,9.00
2019-02-27T11:47:37.380Z,8.93
2019-02-27T11:50:25.107Z,9.00
2019-02-27T11:53:13.052Z,9.20
2019-02-27T11:56:00.675Z,9.17
2019-02-27T11:58:48.715Z,8.85
2019-02-27T12:01:36.446Z,10.80
2019-02-27T12:04:23.564Z,8.93
2019-02-27T12:07:12.308Z,8.27
2019-02-27T12:09:59.847Z,8.20
2019-02-27T12:12:46.970Z,7.67
2019-02-27T12:15:34.385Z,8.70
2019-02-27T12:18:23.642Z,10.58
2019-02-27T12:21:11.486Z,8.75
2019-02-27T12:23:58.805Z,8.53
2019-02-27T12:26:46.536Z,7.20
2019-02-27T12:29:33.873Z,6.72
2019-02-27T12:32:21.927Z,11.18
2019-02-27T12:35:12.997Z,5.75
2019-02-27T12:38:00.441Z,6.03
2019-02-27T12:40:48.079Z,5.70
2019-02-27T12:43:35.412Z,14.28
2019-02-27T12:46:23.013Z,5.00
2019-02-27T12:49:10.848Z,6.25
2019-02-27T12:51:58.581Z,5.50
2019-02-27T12:54:48.364Z,7.50
2019-02-27T12:57:35.272Z,5.17
2019-02-27T13:00:25.767Z,5.25
2019-02-27T13:03:12.882Z,5.00
2019-02-27T13:06:00.976Z,5.67
2019-02-27T13:08:52.607Z,5.92
2019-02-27T13:11:39.122Z,5.67
2019-02-27T13:14:27.394Z,5.92
2019-02-27T13:17:15.037Z,4.67
2019-02-27T13:20:03.233Z,4.90
2019-02-27T13:22:50.994Z,6.87
2019-02-27T13:25:38.115Z,4.92
2019-02-27T13:28:25.441Z,4.17
2019-02-27T13:31:13.676Z,4.17
2019-02-27T13:34:01.722Z,4.53
2019-02-27T13:36:49.143Z,3.80
2019-02-27T13:39:36.977Z,4.70
2019-02-27T13:42:24.296Z,4.20
2019-02-27T13:45:20.393Z,4.33
2019-02-27T13:48:07.953Z,5.65
2019-02-27T13:50:56.625Z,4.78
2019-02-27T13:53:44.896Z,3.45
2019-02-27T13:56:33.499Z,3.75
2019-02-27T13:59:20.516Z,3.17
2019-02-27T14:02:08.458Z,3.95
2019-02-27T14:04:57.294Z,3.42
2019-02-27T14:07:45.347Z,3.95
2019-02-27T14:10:34.228Z,5.30
2019-02-27T14:13:21.532Z,5.03
2019-02-27T14:16:08.964Z,5.17
2019-02-27T14:18:56.687Z,4.78
2019-02-27T14:21:44.213Z,5.97
2019-02-27T14:24:31.232Z,4.35
2019-02-27T14:27:18.546Z,3.87
2019-02-27T14:30:12.219Z,3.90
2019-02-27T14:32:59.746Z,4.20
2019-02-27T14:35:47.577Z,3.33
2019-02-27T14:38:34.899Z,3.83
2019-02-27T14:41:22.223Z,3.33
2019-02-27T14:44:09.547Z,3.40
2019-02-27T14:46:57.283Z,3.60
2019-02-27T14:49:44.600Z,2.50
2019-02-27T14:52:32.225Z,3.33
2019-02-27T14:55:20.731Z,3.22
2019-02-27T14:58:08.099Z,4.65
2019-02-27T15:00:55.835Z,2.67
2019-02-27T15:03:43.370Z,2.92
2019-02-27T15:06:30.883Z,5.37
2019-02-27T15:09:18.298Z,4.10
2019-02-27T15:12:06.052Z,5.92
2019-02-27T15:14:55.363Z,4.30
2019-02-27T15:17:42.732Z,4.37
2019-02-27T15:20:30.786Z,6.33
2019-02-27T15:23:17.888Z,4.50
2019-02-27T15:26:05.824Z,4.78
2019-02-27T15:28:53.350Z,7.25
2019-02-27T15:31:40.877Z,5.37
2019-02-27T15:34:28.611Z,15.75
2019-02-27T15:37:16.238Z,4.55
2019-02-27T15:40:05.506Z,5.33
2019-02-27T15:42:52.831Z,5.40
2019-02-27T15:45:47.589Z,4.58
2019-02-27T15:48:28.802Z,7.45
2019-02-27T15:51:15.939Z,5.08
2019-02-27T15:54:03.603Z,3.70
2019-02-27T15:56:50.881Z,4.25
2019-02-27T15:59:41.748Z,4.03
2019-02-27T16:02:29.200Z,4.25
2019-02-27T16:05:16.524Z,4.60
2019-02-27T16:08:03.654Z,4.25
2019-02-27T16:10:54.734Z,3.87
2019-02-27T16:13:40.329Z,5.57
2019-02-27T16:16:27.448Z,4.97
2019-02-27T16:19:14.567Z,4.73
2019-02-27T16:22:02.297Z,11.50
2019-02-27T16:24:50.028Z,10.27
2019-02-27T16:27:38.758Z,9.50
2019-02-27T16:30:37.205Z,11.63
2019-02-27T16:33:24.710Z,12.10
2019-02-27T16:36:12.913Z,13.87
2019-02-27T16:39:07.013Z,13.40
2019-02-27T16:41:50.141Z,6.70
2019-02-27T16:44:37.359Z,8.97
2019-02-27T16:47:24.886Z,8.07
2019-02-27T16:50:17.942Z,10.17
2019-02-27T16:53:05.469Z,13.33
2019-02-27T16:55:52.996Z,14.63
2019-02-27T16:58:40.420Z,8.17
2019-02-27T17:01:29.522Z,10.30
2019-02-27T17:04:16.908Z,9.13
2019-02-27T17:07:04.471Z,10.93
2019-02-27T17:09:51.450Z,10.90
2019-02-27T17:12:40.851Z,14.17
2019-02-27T17:15:28.045Z,13.07
2019-02-27T17:18:15.261Z,5.60
2019-02-27T17:21:03.091Z,9.07
2019-02-27T17:23:50.514Z,6.37
2019-02-27T17:26:39.159Z,12.77
2019-02-27T17:29:26.807Z,16.03
2019-02-27T17:32:14.328Z,16.93
2019-02-27T17:35:01.447Z,11.73
2019-02-27T17:37:49.264Z,12.13
2019-02-27T17:40:37.510Z,11.17
2019-02-27T17:43:28.526Z,10.20
2019-02-27T17:46:14.005Z,11.43
2019-02-27T17:49:01.134Z,10.67
2019-02-27T17:51:49.566Z,9.63
2019-02-27T17:54:37.404Z,10.87
2019-02-27T17:57:25.244Z,12.30
2019-02-27T18:00:44.321Z,11.57
2019-02-27T18:03:31.941Z,19.97
2019-02-27T18:06:19.156Z,12.83
2019-02-27T18:09:07.244Z,22.60
2019-02-27T18:11:54.444Z,27.37
2019-02-27T18:14:45.569Z,32.03
2019-02-27T18:17:34.674Z,19.93
2019-02-27T18:20:24.404Z,15.40
2019-02-27T18:23:09.539Z,13.00
2019-02-27T18:25:56.656Z,12.37
2019-02-27T18:28:44.283Z,10.83
2019-02-27T18:31:32.117Z,11.83
2019-02-27T18:34:21.597Z,13.77
2019-02-27T18:37:08.400Z,19.73
2019-02-27T18:39:55.822Z,14.30
2019-02-27T18:42:43.774Z,15.93
2019-02-27T18:45:30.775Z,13.67
2019-02-27T18:48:18.317Z,11.53
2019-02-27T18:51:05.738Z,9.60
2019-02-27T18:53:53.363Z,14.30
2019-02-27T18:56:40.882Z,11.20
2019-02-27T18:59:29.657Z,9.13
2019-02-27T19:02:20.602Z,9.70
2019-02-27T19:05:08.445Z,12.50
2019-02-27T19:07:56.110Z,9.70
2019-02-27T19:10:43.736Z,9.43
2019-02-27T19:13:31.780Z,12.87
2019-02-27T19:16:20.729Z,10.23
2019-02-27T19:19:08.874Z,8.70
2019-02-27T19:21:56.404Z,8.20
2019-02-27T19:24:44.337Z,8.20
2019-02-27T19:27:31.867Z,9.50
2019-02-27T19:30:20.415Z,12.00
2019-02-27T19:33:08.340Z,10.50
2019-02-27T19:35:56.501Z,8.77
2019-02-27T19:38:47.560Z,7.77
2019-02-27T19:41:38.746Z,8.87
2019-02-27T19:44:22.864Z,10.77
2019-02-27T19:47:10.211Z,10.80
2019-02-27T19:49:57.418Z,7.80
2019-02-27T19:52:44.928Z,7.90
2019-02-27T19:55:32.865Z,10.20
2019-02-27T19:58:20.391Z,7.97
2019-02-27T20:01:09.763Z,14.23
2019-02-27T20:03:57.601Z,19.37
2019-02-27T20:06:44.714Z,16.57
2019-02-27T20:09:32.234Z,14.67
2019-02-27T20:12:19.765Z,9.43
2019-02-27T20:15:11.028Z,9.80
2019-02-27T20:17:59.427Z,8.90
2019-02-27T20:20:46.954Z,12.83
2019-02-27T20:23:34.379Z,9.83
2019-02-27T20:26:21.701Z,9.43
2019-02-27T20:29:08.824Z,9.60
2019-02-27T20:31:55.733Z,11.07
2019-02-27T20:34:45.919Z,10.17
2019-02-27T20:37:37.149Z,9.70
2019-02-27T20:40:23.839Z,8.17
2019-02-27T20:43:11.366Z,7.80
2019-02-27T20:45:59.003Z,16.27
2019-02-27T20:48:46.419Z,7.73
2019-02-27T20:51:33.638Z,9.37
2019-02-27T20:54:20.741Z,7.47
2019-02-27T20:57:08.946Z,8.50
2019-02-27T21:00:00.525Z,9.10
2019-02-27T21:02:44.974Z,8.67
2019-02-27T21:05:32.992Z,10.00
2019-02-27T21:08:20.231Z,10.73
2019-02-27T21:11:08.679Z,9.43
2019-02-27T21:13:55.591Z,11.20
2019-02-27T21:16:45.641Z,10.00
2019-02-27T21:19:33.885Z,8.13
2019-02-27T21:22:21.448Z,8.80
2019-02-27T21:25:12.046Z,8.87
2019-02-27T21:28:00.292Z,10.17
2019-02-27T21:30:51.782Z,7.63
2019-02-27T21:33:36.674Z,7.83
2019-02-27T21:36:24.144Z,8.83
2019-02-27T21:39:11.529Z,8.37
2019-02-27T21:41:59.053Z,9.43
2019-02-27T21:44:46.478Z,9.27
2019-02-27T21:47:34.702Z,8.77
2019-02-27T21:50:23.889Z,8.80
2019-02-27T21:53:11.428Z,9.63
2019-02-27T21:55:59.038Z,8.00
2019-02-27T21:58:47.600Z,7.83
2019-02-27T22:01:35.021Z,9.37
2019-02-27T22:04:22.848Z,8.87
2019-02-27T22:07:10.679Z,8.70
2019-02-27T22:09:57.903Z,8.10
2019-02-27T22:12:45.324Z,8.40
2019-02-27T22:15:32.852Z,9.07
2019-02-27T22:18:20.278Z,7.47
2019-02-27T22:21:07.596Z,8.53
2019-02-27T22:23:55.331Z,9.67
2019-02-27T22:26:42.343Z,9.90
2019-02-27T22:29:30.382Z,11.07
2019-02-27T22:32:17.806Z,9.40
2019-02-27T22:35:06.304Z,12.20
2019-02-27T22:37:53.675Z,9.93
2019-02-27T22:40:41.305Z,9.23
2019-02-27T22:43:28.836Z,10.47
2019-02-27T22:46:16.451Z,8.57
2019-02-27T22:49:04.402Z,9.60
2019-02-27T22:51:51.825Z,7.67
2019-02-27T22:54:39.246Z,9.53
2019-02-27T22:57:26.978Z,8.93
2019-02-27T23:00:42.965Z,8.07
2019-02-27T23:03:35.414Z,9.40
2019-02-27T23:06:22.838Z,11.17
2019-02-27T23:09:11.578Z,9.73
2019-02-27T23:11:59.222Z,8.40
2019-02-27T23:14:47.059Z,8.63
2019-02-27T23:17:34.787Z,9.43
2019-02-27T23:20:21.905Z,9.80
2019-02-27T23:23:09.123Z,8.60
2019-02-27T23:25:56.445Z,8.73
2019-02-27T23:28:44.074Z,8.70
2019-02-27T23:31:32.609Z,11.00
2019-02-27T23:34:19.947Z,8.60
2019-02-27T23:37:06.959Z,9.70
2019-02-27T23:39:54.399Z,10.20
2019-02-27T23:42:42.218Z,9.37
2019-02-27T23:45:29.235Z,9.30
2019-02-27T23:48:16.762Z,11.07
2019-02-27T23:51:04.798Z,9.00
2019-02-27T23:53:52.328Z,9.23
2019-02-27T23:56:39.859Z,10.20
2019-02-27T23:59:26.972Z,10.50
